sensor_id;sensor_type;location;lat;lon;timestamp;P1;durP1;ratioP1;P2;durP2;ratioP2
24261;SDS011;12385;51.412;5.540;2024-03-29T00:00:42;5.65;;;1.23;;
24261;SDS011;12385;51.412;5.540;2024-03-29T00:03:09;3.75;;;0.88;;
24261;SDS011;12385;51.412;5.540;2024-03-29T00:05:36;6.78;;;1.08;;
24261;SDS011;12385;51.412;5.540;2024-03-29T00:08:05;4.88;;;1.10;;
24261;SDS011;12385;51.412;5.540;2024-03-29T00:10:31;6.03;;;1.30;;
24261;SDS011;12385;51.412;5.540;2024-03-29T00:12:59;5.38;;;1.00;;
24261;SDS011;12385;51.412;5.540;2024-03-29T00:15:26;5.93;;;0.85;;
24261;SDS011;12385;51.412;5.540;2024-03-29T00:17:54;5.47;;;0.90;;
24261;SDS011;12385;51.412;5.540;2024-03-29T00:20:24;6.05;;;1.10;;
24261;SDS011;12385;51.412;5.540;2024-03-29T00:22:55;6.55;;;1.00;;
24261;SDS011;12385;51.412;5.540;2024-03-29T00:25:24;4.28;;;1.10;;
24261;SDS011;12385;51.412;5.540;2024-03-29T00:27:49;7.15;;;1.00;;
24261;SDS011;12385;51.412;5.540;2024-03-29T00:30:15;6.88;;;1.00;;
24261;SDS011;12385;51.412;5.540;2024-03-29T00:32:40;3.80;;;0.93;;
24261;SDS011;12385;51.412;5.540;2024-03-29T00:35:06;3.60;;;0.80;;
24261;SDS011;12385;51.412;5.540;2024-03-29T00:37:32;4.95;;;1.02;;
24261;SDS011;12385;51.412;5.540;2024-03-29T00:39:58;6.95;;;1.20;;
24261;SDS011;12385;51.412;5.540;2024-03-29T00:42:24;7.40;;;1.10;;
24261;SDS011;12385;51.412;5.540;2024-03-29T00:44:51;5.47;;;0.98;;
24261;SDS011;12385;51.412;5.540;2024-03-29T00:47:17;5.28;;;1.02;;
24261;SDS011;12385;51.412;5.540;2024-03-29T00:49:43;5.90;;;1.05;;
24261;SDS011;12385;51.412;5.540;2024-03-29T00:52:09;4.32;;;1.00;;
24261;SDS011;12385;51.412;5.540;2024-03-29T00:54:35;5.18;;;1.30;;
24261;SDS011;12385;51.412;5.540;2024-03-29T00:57:02;4.88;;;1.15;;
24261;SDS011;12385;51.412;5.540;2024-03-29T00:59:28;5.03;;;1.10;;
24261;SDS011;12385;51.412;5.540;2024-03-29T01:01:58;4.47;;;1.10;;
24261;SDS011;12385;51.412;5.540;2024-03-29T01:04:27;5.05;;;1.23;;
24261;SDS011;12385;51.412;5.540;2024-03-29T01:06:56;4.88;;;1.00;;
24261;SDS011;12385;51.412;5.540;2024-03-29T01:09:28;4.88;;;1.02;;
24261;SDS011;12385;51.412;5.540;2024-03-29T01:11:58;8.20;;;1.10;;
24261;SDS011;12385;51.412;5.540;2024-03-29T01:14:28;3.47;;;1.00;;
24261;SDS011;12385;51.412;5.540;2024-03-29T01:16:57;4.60;;;1.05;;
24261;SDS011;12385;51.412;5.540;2024-03-29T01:19:27;3.95;;;0.93;;
24261;SDS011;12385;51.412;5.540;2024-03-29T01:21:54;5.30;;;1.00;;
24261;SDS011;12385;51.412;5.540;2024-03-29T01:24:27;6.63;;;0.90;;
24261;SDS011;12385;51.412;5.540;2024-03-29T01:26:58;6.50;;;1.10;;
24261;SDS011;12385;51.412;5.540;2024-03-29T01:29:24;5.32;;;1.10;;
24261;SDS011;12385;51.412;5.540;2024-03-29T01:31:55;3.17;;;0.73;;
24261;SDS011;12385;51.412;5.540;2024-03-29T01:34:27;6.57;;;1.20;;
24261;SDS011;12385;51.412;5.540;2024-03-29T01:37:01;11.23;;;1.20;;
24261;SDS011;12385;51.412;5.540;2024-03-29T01:39:27;6.28;;;1.48;;
24261;SDS011;12385;51.412;5.540;2024-03-29T01:41:57;9.50;;;1.13;;
24261;SDS011;12385;51.412;5.540;2024-03-29T01:44:24;4.60;;;1.20;;
24261;SDS011;12385;51.412;5.540;2024-03-29T01:46:59;7.40;;;1.05;;
24261;SDS011;12385;51.412;5.540;2024-03-29T01:49:26;5.90;;;0.90;;
24261;SDS011;12385;51.412;5.540;2024-03-29T01:51:54;4.15;;;0.98;;
24261;SDS011;12385;51.412;5.540;2024-03-29T01:54:27;6.40;;;1.00;;
24261;SDS011;12385;51.412;5.540;2024-03-29T01:56:55;7.70;;;1.00;;
24261;SDS011;12385;51.412;5.540;2024-03-29T01:59:28;7.72;;;1.05;;
24261;SDS011;12385;51.412;5.540;2024-03-29T02:01:58;4.22;;;1.08;;
24261;SDS011;12385;51.412;5.540;2024-03-29T02:04:28;3.17;;;0.70;;
24261;SDS011;12385;51.412;5.540;2024-03-29T02:07:01;3.22;;;1.00;;
24261;SDS011;12385;51.412;5.540;2024-03-29T02:09:28;4.95;;;0.90;;
24261;SDS011;12385;51.412;5.540;2024-03-29T02:11:57;3.50;;;0.90;;
24261;SDS011;12385;51.412;5.540;2024-03-29T02:14:25;5.10;;;0.93;;
24261;SDS011;12385;51.412;5.540;2024-03-29T02:16:58;3.08;;;0.98;;
24261;SDS011;12385;51.412;5.540;2024-03-29T02:19:27;2.92;;;0.82;;
24261;SDS011;12385;51.412;5.540;2024-03-29T02:21:55;6.80;;;0.98;;
24261;SDS011;12385;51.412;5.540;2024-03-29T02:24:27;5.65;;;0.90;;
24261;SDS011;12385;51.412;5.540;2024-03-29T02:26:59;5.72;;;1.17;;
24261;SDS011;12385;51.412;5.540;2024-03-29T02:29:29;6.10;;;1.10;;
24261;SDS011;12385;51.412;5.540;2024-03-29T02:31:59;4.85;;;1.00;;
24261;SDS011;12385;51.412;5.540;2024-03-29T02:34:28;6.72;;;1.95;;
24261;SDS011;12385;51.412;5.540;2024-03-29T02:36:59;3.30;;;1.02;;
24261;SDS011;12385;51.412;5.540;2024-03-29T02:39:28;4.25;;;0.82;;
24261;SDS011;12385;51.412;5.540;2024-03-29T02:41:58;4.00;;;0.88;;
24261;SDS011;12385;51.412;5.540;2024-03-29T02:44:28;3.92;;;0.80;;
24261;SDS011;12385;51.412;5.540;2024-03-29T02:46:59;5.65;;;0.95;;
24261;SDS011;12385;51.412;5.540;2024-03-29T02:49:28;2.72;;;0.73;;
24261;SDS011;12385;51.412;5.540;2024-03-29T02:51:56;5.25;;;0.90;;
24261;SDS011;12385;51.412;5.540;2024-03-29T02:54:28;2.92;;;0.90;;
24261;SDS011;12385;51.412;5.540;2024-03-29T02:56:58;3.95;;;0.70;;
24261;SDS011;12385;51.412;5.540;2024-03-29T03:01:58;2.78;;;0.70;;
24261;SDS011;12385;51.412;5.540;2024-03-29T03:04:28;2.88;;;0.90;;
24261;SDS011;12385;51.412;5.540;2024-03-29T03:06:59;3.58;;;1.00;;
24261;SDS011;12385;51.412;5.540;2024-03-29T03:09:45;3.70;;;0.85;;
24261;SDS011;12385;51.412;5.540;2024-03-29T03:12:29;4.93;;;0.80;;
24261;SDS011;12385;51.412;5.540;2024-03-29T03:14:59;4.03;;;0.77;;
24261;SDS011;12385;51.412;5.540;2024-03-29T03:19:58;3.40;;;0.70;;
24261;SDS011;12385;51.412;5.540;2024-03-29T03:22:30;4.32;;;0.70;;
24261;SDS011;12385;51.412;5.540;2024-03-29T03:25:05;3.88;;;0.98;;
24261;SDS011;12385;51.412;5.540;2024-03-29T03:27:30;3.65;;;0.80;;
24261;SDS011;12385;51.412;5.540;2024-03-29T03:30:02;3.95;;;1.00;;
24261;SDS011;12385;51.412;5.540;2024-03-29T03:32:29;3.88;;;0.90;;
24261;SDS011;12385;51.412;5.540;2024-03-29T03:34:59;2.22;;;0.82;;
24261;SDS011;12385;51.412;5.540;2024-03-29T03:37:28;1.45;;;0.70;;
24261;SDS011;12385;51.412;5.540;2024-03-29T03:39:56;2.40;;;0.70;;
24261;SDS011;12385;51.412;5.540;2024-03-29T03:42:27;2.53;;;0.70;;
24261;SDS011;12385;51.412;5.540;2024-03-29T03:44:56;7.45;;;0.80;;
24261;SDS011;12385;51.412;5.540;2024-03-29T03:47:28;4.65;;;0.90;;
24261;SDS011;12385;51.412;5.540;2024-03-29T03:49:58;4.53;;;0.77;;
24261;SDS011;12385;51.412;5.540;2024-03-29T03:52:26;5.53;;;0.80;;
24261;SDS011;12385;51.412;5.540;2024-03-29T03:54:53;4.95;;;0.90;;
24261;SDS011;12385;51.412;5.540;2024-03-29T03:57:27;3.35;;;0.90;;
24261;SDS011;12385;51.412;5.540;2024-03-29T03:59:55;2.47;;;0.75;;
24261;SDS011;12385;51.412;5.540;2024-03-29T04:02:29;5.43;;;0.90;;
24261;SDS011;12385;51.412;5.540;2024-03-29T04:04:58;3.70;;;0.90;;
24261;SDS011;12385;51.412;5.540;2024-03-29T04:07:28;3.67;;;0.80;;
24261;SDS011;12385;51.412;5.540;2024-03-29T04:09:57;5.90;;;0.90;;
24261;SDS011;12385;51.412;5.540;2024-03-29T04:12:22;2.80;;;0.98;;
24261;SDS011;12385;51.412;5.540;2024-03-29T04:15:01;4.55;;;1.10;;
24261;SDS011;12385;51.412;5.540;2024-03-29T04:17:28;3.05;;;0.70;;
24261;SDS011;12385;51.412;5.540;2024-03-29T04:19:58;6.30;;;1.05;;
24261;SDS011;12385;51.412;5.540;2024-03-29T04:22:29;5.13;;;1.05;;
24261;SDS011;12385;51.412;5.540;2024-03-29T04:24:58;5.78;;;1.10;;
24261;SDS011;12385;51.412;5.540;2024-03-29T04:27:27;3.92;;;1.10;;
24261;SDS011;12385;51.412;5.540;2024-03-29T04:30:00;4.25;;;1.08;;
24261;SDS011;12385;51.412;5.540;2024-03-29T04:32:28;5.65;;;1.20;;
24261;SDS011;12385;51.412;5.540;2024-03-29T04:34:56;5.90;;;1.05;;
24261;SDS011;12385;51.412;5.540;2024-03-29T04:37:22;6.70;;;0.90;;
24261;SDS011;12385;51.412;5.540;2024-03-29T04:39:48;4.88;;;0.90;;
24261;SDS011;12385;51.412;5.540;2024-03-29T04:42:14;3.88;;;1.00;;
24261;SDS011;12385;51.412;5.540;2024-03-29T04:44:40;5.20;;;1.05;;
24261;SDS011;12385;51.412;5.540;2024-03-29T04:47:06;3.33;;;0.85;;
24261;SDS011;12385;51.412;5.540;2024-03-29T04:49:32;5.25;;;1.00;;
24261;SDS011;12385;51.412;5.540;2024-03-29T04:54:30;2.88;;;0.90;;
24261;SDS011;12385;51.412;5.540;2024-03-29T04:56:58;5.55;;;1.02;;
24261;SDS011;12385;51.412;5.540;2024-03-29T04:59:28;3.25;;;0.80;;
24261;SDS011;12385;51.412;5.540;2024-03-29T05:01:58;5.60;;;0.90;;
24261;SDS011;12385;51.412;5.540;2024-03-29T05:04:28;5.38;;;1.25;;
24261;SDS011;12385;51.412;5.540;2024-03-29T05:06:58;2.70;;;0.90;;
24261;SDS011;12385;51.412;5.540;2024-03-29T05:09:28;3.47;;;0.82;;
24261;SDS011;12385;51.412;5.540;2024-03-29T05:11:58;4.85;;;1.00;;
24261;SDS011;12385;51.412;5.540;2024-03-29T05:14:26;4.68;;;1.00;;
24261;SDS011;12385;51.412;5.540;2024-03-29T05:16:53;3.60;;;0.88;;
24261;SDS011;12385;51.412;5.540;2024-03-29T05:21:49;2.13;;;0.68;;
24261;SDS011;12385;51.412;5.540;2024-03-29T05:24:15;3.38;;;1.20;;
24261;SDS011;12385;51.412;5.540;2024-03-29T05:26:42;2.42;;;0.95;;
24261;SDS011;12385;51.412;5.540;2024-03-29T05:29:08;4.95;;;1.05;;
24261;SDS011;12385;51.412;5.540;2024-03-29T05:31:37;4.85;;;1.00;;
24261;SDS011;12385;51.412;5.540;2024-03-29T05:34:03;4.40;;;1.07;;
24261;SDS011;12385;51.412;5.540;2024-03-29T05:36:31;3.00;;;1.00;;
24261;SDS011;12385;51.412;5.540;2024-03-29T05:38:58;4.20;;;0.90;;
24261;SDS011;12385;51.412;5.540;2024-03-29T05:41:27;3.38;;;0.98;;
24261;SDS011;12385;51.412;5.540;2024-03-29T05:43:53;3.30;;;1.10;;
24261;SDS011;12385;51.412;5.540;2024-03-29T05:46:26;4.65;;;1.00;;
24261;SDS011;12385;51.412;5.540;2024-03-29T05:48:52;5.53;;;0.82;;
24261;SDS011;12385;51.412;5.540;2024-03-29T05:51:18;4.22;;;1.10;;
24261;SDS011;12385;51.412;5.540;2024-03-29T05:53:44;3.55;;;0.90;;
24261;SDS011;12385;51.412;5.540;2024-03-29T05:56:09;7.13;;;1.10;;
24261;SDS011;12385;51.412;5.540;2024-03-29T05:58:36;2.75;;;1.02;;
24261;SDS011;12385;51.412;5.540;2024-03-29T06:01:02;5.07;;;1.08;;
24261;SDS011;12385;51.412;5.540;2024-03-29T06:03:28;3.25;;;1.00;;
24261;SDS011;12385;51.412;5.540;2024-03-29T06:05:57;4.65;;;1.10;;
24261;SDS011;12385;51.412;5.540;2024-03-29T06:08:23;3.03;;;1.30;;
24261;SDS011;12385;51.412;5.540;2024-03-29T06:10:53;6.53;;;1.45;;
24261;SDS011;12385;51.412;5.540;2024-03-29T06:13:21;5.35;;;1.20;;
24261;SDS011;12385;51.412;5.540;2024-03-29T06:16:12;8.85;;;1.20;;
24261;SDS011;12385;51.412;5.540;2024-03-29T06:18:58;3.30;;;1.10;;
24261;SDS011;12385;51.412;5.540;2024-03-29T06:21:27;3.40;;;1.05;;
24261;SDS011;12385;51.412;5.540;2024-03-29T06:23:54;3.97;;;1.30;;
24261;SDS011;12385;51.412;5.540;2024-03-29T06:26:29;3.97;;;1.40;;
24261;SDS011;12385;51.412;5.540;2024-03-29T06:28:58;2.97;;;1.17;;
24261;SDS011;12385;51.412;5.540;2024-03-29T06:31:23;6.35;;;1.75;;
24261;SDS011;12385;51.412;5.540;2024-03-29T06:33:54;5.03;;;1.55;;
24261;SDS011;12385;51.412;5.540;2024-03-29T06:36:27;3.20;;;1.20;;
24261;SDS011;12385;51.412;5.540;2024-03-29T06:38:58;5.22;;;1.20;;
24261;SDS011;12385;51.412;5.540;2024-03-29T06:41:27;4.63;;;1.30;;
24261;SDS011;12385;51.412;5.540;2024-03-29T06:43:53;5.65;;;1.70;;
24261;SDS011;12385;51.412;5.540;2024-03-29T06:46:18;3.75;;;1.30;;
24261;SDS011;12385;51.412;5.540;2024-03-29T06:48:44;5.45;;;1.45;;
24261;SDS011;12385;51.412;5.540;2024-03-29T06:51:10;5.40;;;1.40;;
24261;SDS011;12385;51.412;5.540;2024-03-29T06:53:36;7.63;;;1.40;;
24261;SDS011;12385;51.412;5.540;2024-03-29T06:56:03;4.43;;;1.20;;
24261;SDS011;12385;51.412;5.540;2024-03-29T06:58:28;3.03;;;1.30;;
24261;SDS011;12385;51.412;5.540;2024-03-29T07:01:00;3.35;;;1.20;;
24261;SDS011;12385;51.412;5.540;2024-03-29T07:03:28;4.95;;;1.40;;
24261;SDS011;12385;51.412;5.540;2024-03-29T07:05:55;3.90;;;1.40;;
24261;SDS011;12385;51.412;5.540;2024-03-29T07:08:25;3.67;;;1.50;;
24261;SDS011;12385;51.412;5.540;2024-03-29T07:13:29;4.68;;;1.40;;
24261;SDS011;12385;51.412;5.540;2024-03-29T07:15:59;4.40;;;1.60;;
24261;SDS011;12385;51.412;5.540;2024-03-29T07:18:28;4.53;;;1.80;;
24261;SDS011;12385;51.412;5.540;2024-03-29T07:20:58;4.85;;;1.58;;
24261;SDS011;12385;51.412;5.540;2024-03-29T07:23:27;3.13;;;1.50;;
24261;SDS011;12385;51.412;5.540;2024-03-29T07:26:04;3.83;;;1.55;;
24261;SDS011;12385;51.412;5.540;2024-03-29T07:28:30;5.80;;;1.63;;
24261;SDS011;12385;51.412;5.540;2024-03-29T07:31:04;6.63;;;2.72;;
24261;SDS011;12385;51.412;5.540;2024-03-29T07:33:34;5.53;;;1.98;;
24261;SDS011;12385;51.412;5.540;2024-03-29T07:36:02;5.20;;;1.67;;
24261;SDS011;12385;51.412;5.540;2024-03-29T07:38:29;2.50;;;1.30;;
24261;SDS011;12385;51.412;5.540;2024-03-29T07:41:04;2.42;;;1.33;;
24261;SDS011;12385;51.412;5.540;2024-03-29T07:43:50;3.88;;;1.55;;
24261;SDS011;12385;51.412;5.540;2024-03-29T07:46:17;2.80;;;1.23;;
24261;SDS011;12385;51.412;5.540;2024-03-29T07:48:43;6.10;;;1.45;;
24261;SDS011;12385;51.412;5.540;2024-03-29T07:51:09;3.40;;;1.30;;
24261;SDS011;12385;51.412;5.540;2024-03-29T07:53:35;5.97;;;1.50;;
24261;SDS011;12385;51.412;5.540;2024-03-29T07:56:02;4.50;;;1.40;;
24261;SDS011;12385;51.412;5.540;2024-03-29T07:58:28;4.28;;;1.38;;
24261;SDS011;12385;51.412;5.540;2024-03-29T08:00:57;3.75;;;1.50;;
24261;SDS011;12385;51.412;5.540;2024-03-29T08:03:26;4.25;;;1.58;;
24261;SDS011;12385;51.412;5.540;2024-03-29T08:06:01;4.03;;;1.42;;
24261;SDS011;12385;51.412;5.540;2024-03-29T08:08:31;4.10;;;1.70;;
24261;SDS011;12385;51.412;5.540;2024-03-29T08:11:00;5.57;;;1.50;;
24261;SDS011;12385;51.412;5.540;2024-03-29T08:13:28;4.32;;;1.50;;
24261;SDS011;12385;51.412;5.540;2024-03-29T08:15:59;5.35;;;1.50;;
24261;SDS011;12385;51.412;5.540;2024-03-29T08:18:28;4.20;;;1.58;;
24261;SDS011;12385;51.412;5.540;2024-03-29T08:20:58;4.97;;;1.70;;
24261;SDS011;12385;51.412;5.540;2024-03-29T08:23:28;4.10;;;1.73;;
24261;SDS011;12385;51.412;5.540;2024-03-29T08:26:01;3.25;;;1.80;;
24261;SDS011;12385;51.412;5.540;2024-03-29T08:28:28;6.70;;;2.00;;
24261;SDS011;12385;51.412;5.540;2024-03-29T08:30:59;5.22;;;1.70;;
24261;SDS011;12385;51.412;5.540;2024-03-29T08:33:34;6.57;;;2.05;;
24261;SDS011;12385;51.412;5.540;2024-03-29T08:36:03;7.82;;;2.10;;
24261;SDS011;12385;51.412;5.540;2024-03-29T08:38:30;8.70;;;4.68;;
24261;SDS011;12385;51.412;5.540;2024-03-29T08:40:58;4.40;;;2.00;;
24261;SDS011;12385;51.412;5.540;2024-03-29T08:43:29;5.40;;;2.10;;
24261;SDS011;12385;51.412;5.540;2024-03-29T08:45:58;5.65;;;1.75;;
24261;SDS011;12385;51.412;5.540;2024-03-29T08:48:28;6.68;;;1.88;;
24261;SDS011;12385;51.412;5.540;2024-03-29T08:50:57;4.45;;;1.88;;
24261;SDS011;12385;51.412;5.540;2024-03-29T08:53:28;4.85;;;2.20;;
24261;SDS011;12385;51.412;5.540;2024-03-29T08:55:59;5.32;;;2.38;;
24261;SDS011;12385;51.412;5.540;2024-03-29T08:58:28;5.50;;;1.77;;
24261;SDS011;12385;51.412;5.540;2024-03-29T09:00:56;6.43;;;2.38;;
24261;SDS011;12385;51.412;5.540;2024-03-29T09:03:28;7.15;;;1.80;;
24261;SDS011;12385;51.412;5.540;2024-03-29T09:05:59;5.43;;;1.75;;
24261;SDS011;12385;51.412;5.540;2024-03-29T09:08:29;5.40;;;2.00;;
24261;SDS011;12385;51.412;5.540;2024-03-29T09:10:58;3.90;;;1.95;;
24261;SDS011;12385;51.412;5.540;2024-03-29T09:13:28;5.35;;;1.85;;
24261;SDS011;12385;51.412;5.540;2024-03-29T09:16:00;4.80;;;1.83;;
24261;SDS011;12385;51.412;5.540;2024-03-29T09:18:28;2.92;;;1.60;;
24261;SDS011;12385;51.412;5.540;2024-03-29T09:20:58;4.50;;;2.08;;
24261;SDS011;12385;51.412;5.540;2024-03-29T09:23:28;4.40;;;1.75;;
24261;SDS011;12385;51.412;5.540;2024-03-29T09:26:00;4.55;;;1.67;;
24261;SDS011;12385;51.412;5.540;2024-03-29T09:28:29;5.30;;;1.88;;
24261;SDS011;12385;51.412;5.540;2024-03-29T09:31:00;4.68;;;1.48;;
24261;SDS011;12385;51.412;5.540;2024-03-29T09:33:29;6.57;;;1.80;;
24261;SDS011;12385;51.412;5.540;2024-03-29T09:35:59;4.53;;;1.60;;
24261;SDS011;12385;51.412;5.540;2024-03-29T09:38:29;6.47;;;1.95;;
24261;SDS011;12385;51.412;5.540;2024-03-29T09:43:41;4.07;;;1.70;;
24261;SDS011;12385;51.412;5.540;2024-03-29T09:46:09;3.63;;;1.48;;
24261;SDS011;12385;51.412;5.540;2024-03-29T09:48:38;4.32;;;1.63;;
24261;SDS011;12385;51.412;5.540;2024-03-29T09:51:11;3.40;;;1.55;;
24261;SDS011;12385;51.412;5.540;2024-03-29T09:53:40;3.63;;;1.55;;
24261;SDS011;12385;51.412;5.540;2024-03-29T09:56:07;5.10;;;1.45;;
24261;SDS011;12385;51.412;5.540;2024-03-29T09:58:34;2.60;;;1.40;;
24261;SDS011;12385;51.412;5.540;2024-03-29T10:01:04;3.88;;;1.60;;
24261;SDS011;12385;51.412;5.540;2024-03-29T10:03:31;6.45;;;1.58;;
24261;SDS011;12385;51.412;5.540;2024-03-29T10:06:02;4.35;;;1.30;;
24261;SDS011;12385;51.412;5.540;2024-03-29T10:08:30;3.88;;;1.40;;
24261;SDS011;12385;51.412;5.540;2024-03-29T10:11:00;3.47;;;1.40;;
24261;SDS011;12385;51.412;5.540;2024-03-29T10:13:29;2.60;;;1.20;;
24261;SDS011;12385;51.412;5.540;2024-03-29T10:15:58;2.55;;;1.08;;
24261;SDS011;12385;51.412;5.540;2024-03-29T10:18:29;2.75;;;1.10;;
24261;SDS011;12385;51.412;5.540;2024-03-29T10:21:02;3.88;;;1.20;;
24261;SDS011;12385;51.412;5.540;2024-03-29T10:23:30;2.67;;;0.93;;
24261;SDS011;12385;51.412;5.540;2024-03-29T10:25:59;3.05;;;1.27;;
24261;SDS011;12385;51.412;5.540;2024-03-29T10:28:33;2.60;;;1.05;;
24261;SDS011;12385;51.412;5.540;2024-03-29T10:31:03;2.17;;;0.80;;
24261;SDS011;12385;51.412;5.540;2024-03-29T10:33:30;2.53;;;0.80;;
24261;SDS011;12385;51.412;5.540;2024-03-29T10:35:59;3.63;;;0.85;;
24261;SDS011;12385;51.412;5.540;2024-03-29T10:38:30;1.77;;;1.00;;
24261;SDS011;12385;51.412;5.540;2024-03-29T10:40:59;2.40;;;0.82;;
24261;SDS011;12385;51.412;5.540;2024-03-29T10:43:30;5.03;;;0.80;;
24261;SDS011;12385;51.412;5.540;2024-03-29T10:45:59;2.08;;;0.90;;
24261;SDS011;12385;51.412;5.540;2024-03-29T10:48:29;3.30;;;1.00;;
24261;SDS011;12385;51.412;5.540;2024-03-29T10:50:58;2.72;;;0.80;;
24261;SDS011;12385;51.412;5.540;2024-03-29T10:53:29;3.85;;;0.85;;
24261;SDS011;12385;51.412;5.540;2024-03-29T10:56:04;3.47;;;1.00;;
24261;SDS011;12385;51.412;5.540;2024-03-29T10:58:33;2.03;;;0.80;;
24261;SDS011;12385;51.412;5.540;2024-03-29T11:01:01;3.78;;;0.98;;
24261;SDS011;12385;51.412;5.540;2024-03-29T11:03:38;1.73;;;0.90;;
24261;SDS011;12385;51.412;5.540;2024-03-29T11:06:09;2.45;;;0.90;;
24261;SDS011;12385;51.412;5.540;2024-03-29T11:08:40;2.78;;;0.70;;
24261;SDS011;12385;51.412;5.540;2024-03-29T11:11:10;3.05;;;0.80;;
24261;SDS011;12385;51.412;5.540;2024-03-29T11:13:42;1.10;;;0.70;;
24261;SDS011;12385;51.412;5.540;2024-03-29T11:16:10;2.10;;;0.90;;
24261;SDS011;12385;51.412;5.540;2024-03-29T11:18:37;3.33;;;1.05;;
24261;SDS011;12385;51.412;5.540;2024-03-29T11:21:03;1.15;;;0.60;;
24261;SDS011;12385;51.412;5.540;2024-03-29T11:23:33;1.85;;;0.75;;
24261;SDS011;12385;51.412;5.540;2024-03-29T11:25:59;2.60;;;0.70;;
24261;SDS011;12385;51.412;5.540;2024-03-29T11:28:32;1.98;;;0.70;;
24261;SDS011;12385;51.412;5.540;2024-03-29T11:33:34;1.17;;;0.57;;
24261;SDS011;12385;51.412;5.540;2024-03-29T11:38:36;1.58;;;0.43;;
24261;SDS011;12385;51.412;5.540;2024-03-29T11:41:15;2.65;;;0.40;;
24261;SDS011;12385;51.412;5.540;2024-03-29T11:43:43;0.80;;;0.40;;
24261;SDS011;12385;51.412;5.540;2024-03-29T11:46:10;2.78;;;1.23;;
24261;SDS011;12385;51.412;5.540;2024-03-29T11:48:37;3.10;;;0.50;;
24261;SDS011;12385;51.412;5.540;2024-03-29T11:51:04;0.90;;;0.30;;
24261;SDS011;12385;51.412;5.540;2024-03-29T11:53:31;1.98;;;0.40;;
24261;SDS011;12385;51.412;5.540;2024-03-29T11:55:59;1.10;;;0.40;;
24261;SDS011;12385;51.412;5.540;2024-03-29T11:58:29;1.95;;;0.30;;
24261;SDS011;12385;51.412;5.540;2024-03-29T12:01:00;1.23;;;0.40;;
24261;SDS011;12385;51.412;5.540;2024-03-29T12:03:29;1.55;;;0.50;;
24261;SDS011;12385;51.412;5.540;2024-03-29T12:05:58;0.77;;;0.47;;
24261;SDS011;12385;51.412;5.540;2024-03-29T12:08:29;1.13;;;0.40;;
24261;SDS011;12385;51.412;5.540;2024-03-29T12:10:59;4.37;;;0.50;;
24261;SDS011;12385;51.412;5.540;2024-03-29T12:13:29;1.05;;;0.43;;
24261;SDS011;12385;51.412;5.540;2024-03-29T12:15:58;1.58;;;0.50;;
24261;SDS011;12385;51.412;5.540;2024-03-29T12:20:58;1.15;;;0.45;;
24261;SDS011;12385;51.412;5.540;2024-03-29T12:23:28;1.25;;;0.50;;
24261;SDS011;12385;51.412;5.540;2024-03-29T12:25:58;1.55;;;0.50;;
24261;SDS011;12385;51.412;5.540;2024-03-29T12:28:28;1.10;;;0.50;;
24261;SDS011;12385;51.412;5.540;2024-03-29T12:30:58;1.42;;;0.60;;
24261;SDS011;12385;51.412;5.540;2024-03-29T12:33:29;1.17;;;0.53;;
24261;SDS011;12385;51.412;5.540;2024-03-29T12:35:58;1.10;;;0.40;;
24261;SDS011;12385;51.412;5.540;2024-03-29T12:38:27;1.13;;;0.43;;
24261;SDS011;12385;51.412;5.540;2024-03-29T12:40:59;0.73;;;0.40;;
24261;SDS011;12385;51.412;5.540;2024-03-29T12:43:29;1.77;;;0.47;;
24261;SDS011;12385;51.412;5.540;2024-03-29T12:45:58;2.03;;;0.50;;
24261;SDS011;12385;51.412;5.540;2024-03-29T12:48:28;1.23;;;0.40;;
24261;SDS011;12385;51.412;5.540;2024-03-29T12:50:58;2.08;;;0.50;;
24261;SDS011;12385;51.412;5.540;2024-03-29T12:53:23;1.40;;;0.50;;
24261;SDS011;12385;51.412;5.540;2024-03-29T12:55:53;1.92;;;0.57;;
24261;SDS011;12385;51.412;5.540;2024-03-29T12:58:28;1.17;;;0.50;;
24261;SDS011;12385;51.412;5.540;2024-03-29T13:00:58;2.50;;;0.50;;
24261;SDS011;12385;51.412;5.540;2024-03-29T13:08:23;1.55;;;0.70;;
24261;SDS011;12385;51.412;5.540;2024-03-29T13:10:58;1.65;;;0.40;;
24261;SDS011;12385;51.412;5.540;2024-03-29T13:13:28;1.20;;;0.40;;
24261;SDS011;12385;51.412;5.540;2024-03-29T13:15:59;1.67;;;0.60;;
24261;SDS011;12385;51.412;5.540;2024-03-29T13:18:28;1.17;;;0.52;;
24261;SDS011;12385;51.412;5.540;2024-03-29T13:20:57;1.52;;;0.50;;
24261;SDS011;12385;51.412;5.540;2024-03-29T13:23:28;1.23;;;0.40;;
24261;SDS011;12385;51.412;5.540;2024-03-29T13:25:58;1.90;;;0.50;;
24261;SDS011;12385;51.412;5.540;2024-03-29T13:28:28;2.08;;;0.50;;
24261;SDS011;12385;51.412;5.540;2024-03-29T13:30:58;2.10;;;0.40;;
24261;SDS011;12385;51.412;5.540;2024-03-29T13:33:28;3.67;;;0.60;;
24261;SDS011;12385;51.412;5.540;2024-03-29T13:35:58;2.05;;;0.50;;
24261;SDS011;12385;51.412;5.540;2024-03-29T13:38:29;1.92;;;0.40;;
24261;SDS011;12385;51.412;5.540;2024-03-29T13:40:59;2.30;;;0.77;;
24261;SDS011;12385;51.412;5.540;2024-03-29T13:43:28;0.80;;;0.52;;
24261;SDS011;12385;51.412;5.540;2024-03-29T13:45:58;3.20;;;0.70;;
24261;SDS011;12385;51.412;5.540;2024-03-29T13:48:29;2.15;;;0.43;;
24261;SDS011;12385;51.412;5.540;2024-03-29T13:50:59;1.35;;;0.47;;
24261;SDS011;12385;51.412;5.540;2024-03-29T13:53:29;1.85;;;0.60;;
24261;SDS011;12385;51.412;5.540;2024-03-29T13:56:00;2.95;;;0.55;;
24261;SDS011;12385;51.412;5.540;2024-03-29T13:58:29;2.22;;;0.50;;
24261;SDS011;12385;51.412;5.540;2024-03-29T14:00:58;1.67;;;0.40;;
24261;SDS011;12385;51.412;5.540;2024-03-29T14:03:28;0.88;;;0.40;;
24261;SDS011;12385;51.412;5.540;2024-03-29T14:05:59;1.92;;;0.50;;
24261;SDS011;12385;51.412;5.540;2024-03-29T14:08:29;1.63;;;0.50;;
24261;SDS011;12385;51.412;5.540;2024-03-29T14:10:59;5.55;;;0.50;;
24261;SDS011;12385;51.412;5.540;2024-03-29T14:15:59;5.05;;;0.40;;
24261;SDS011;12385;51.412;5.540;2024-03-29T14:18:29;1.58;;;0.43;;
24261;SDS011;12385;51.412;5.540;2024-03-29T14:20:59;0.80;;;0.28;;
24261;SDS011;12385;51.412;5.540;2024-03-29T14:23:30;4.88;;;0.60;;
24261;SDS011;12385;51.412;5.540;2024-03-29T14:25:59;1.42;;;0.35;;
24261;SDS011;12385;51.412;5.540;2024-03-29T14:28:33;2.42;;;0.30;;
24261;SDS011;12385;51.412;5.540;2024-03-29T14:30:59;1.15;;;0.40;;
24261;SDS011;12385;51.412;5.540;2024-03-29T14:33:29;3.30;;;0.40;;
24261;SDS011;12385;51.412;5.540;2024-03-29T14:35:59;1.13;;;0.32;;
24261;SDS011;12385;51.412;5.540;2024-03-29T14:38:30;0.63;;;0.30;;
24261;SDS011;12385;51.412;5.540;2024-03-29T14:40:59;2.45;;;0.50;;
24261;SDS011;12385;51.412;5.540;2024-03-29T14:43:29;0.93;;;0.40;;
24261;SDS011;12385;51.412;5.540;2024-03-29T14:45:59;2.58;;;0.45;;
24261;SDS011;12385;51.412;5.540;2024-03-29T14:48:29;3.40;;;0.50;;
24261;SDS011;12385;51.412;5.540;2024-03-29T14:50:58;5.20;;;0.40;;
24261;SDS011;12385;51.412;5.540;2024-03-29T14:53:28;0.50;;;0.40;;
24261;SDS011;12385;51.412;5.540;2024-03-29T14:55:59;2.25;;;0.40;;
24261;SDS011;12385;51.412;5.540;2024-03-29T14:58:29;1.45;;;0.43;;
24261;SDS011;12385;51.412;5.540;2024-03-29T15:00:58;1.90;;;0.50;;
24261;SDS011;12385;51.412;5.540;2024-03-29T15:03:29;1.38;;;0.40;;
24261;SDS011;12385;51.412;5.540;2024-03-29T15:05:59;1.35;;;0.40;;
24261;SDS011;12385;51.412;5.540;2024-03-29T15:08:28;1.80;;;0.50;;
24261;SDS011;12385;51.412;5.540;2024-03-29T15:11:00;2.45;;;0.60;;
24261;SDS011;12385;51.412;5.540;2024-03-29T15:13:28;1.92;;;0.60;;
24261;SDS011;12385;51.412;5.540;2024-03-29T15:15:59;1.15;;;0.50;;
24261;SDS011;12385;51.412;5.540;2024-03-29T15:18:29;1.90;;;0.50;;
24261;SDS011;12385;51.412;5.540;2024-03-29T15:23:29;0.90;;;0.40;;
24261;SDS011;12385;51.412;5.540;2024-03-29T15:25:58;1.48;;;0.52;;
24261;SDS011;12385;51.412;5.540;2024-03-29T15:28:32;1.40;;;0.40;;
24261;SDS011;12385;51.412;5.540;2024-03-29T15:31:20;2.03;;;0.60;;
24261;SDS011;12385;51.412;5.540;2024-03-29T15:33:53;2.58;;;0.50;;